Current Conditions
Leichter Regen
Schauer




Pressure
1010.92 (hPa) - 29.85 (inHG)
Visibility

10.0 (km) - 6.2 (miles)
   Temperature
17  °C
63°F
14  °C
Dewpoint
83  %
 Humidity
   Wind Speed
27  km/h
15  kts
17  mph
7.6  m/s
   Wind Direction
 320°
North West
   Airport Data
EDDP
Location Leipzig Halle 90 km (55.94 mi)
Metar :EDDP 021750Z 32015KT 9999 -SHRA FEW016 BKN060CB 17/14 Q1011 RESHRA BECMG 32010KT
Thu 2nd July 19:50 pm
   Raw Metar Info
Raw METAR is the most common format in the world for the transmission of observational weather data. It is highly standardized through the International Civil Aviation Organization (ICAO), which allows it to be understood throughout most of the world.
   API Info
Data Provided by
https://www.checkwx.com/weather/EDDP
   © Info
CSS/SVG/PHP scripts were developed by weather34.com for use in the weather34 template © 2015-2020

Guide Info provided by Metar-Wikipedia